Time;durP1;ratioP1;P1;durP2;ratioP2;P2;SDS_P1;SDS_P2;PMS_P1;PMS_P2;Temp;Humidity;BMP_temperature;BMP_pressure;BME280_temperature;BME280_humidity;BME280_pressure;Samples;Min_cycle;Max_cycle;Signal;HPM_P1;HPM_P2
2023/07/13 00:01:27;;;;;;;;;;;22.30;63.00;;;;;;4970804;28;928;-67
2023/07/13 00:03:53;;;;;;;;;;;22.30;63.00;;;;;;4970427;28;1390;-67
2023/07/13 00:06:20;;;;;;;;;;;22.30;63.10;;;;;;4970696;28;983;-69
2023/07/13 00:08:45;;;;;;;;;;;22.30;63.10;;;;;;4971247;28;899;-69
2023/07/13 00:11:11;;;;;;;;;;;22.30;63.10;;;;;;4971770;28;823;-69
2023/07/13 00:13:39;;;;;;;;;;;22.30;63.10;;;;;;4971662;28;1265;-69
2023/07/13 00:16:04;;;;;;;;;;;22.30;63.20;;;;;;4986032;28;1188;-68
2023/07/13 00:18:30;;;;;;;;;;;22.30;63.20;;;;;;4987349;28;1373;-69
2023/07/13 00:20:55;;;;;;;;;;;22.30;63.20;;;;;;4972558;28;1961;-69
2023/07/13 00:23:21;;;;;;;;;;;22.30;63.20;;;;;;4971034;28;1323;-69
2023/07/13 00:25:46;;;;;;;;;;;22.30;63.20;;;;;;4986943;28;903;-68
2023/07/13 00:28:12;;;;;;;;;;;22.30;63.30;;;;;;4971229;28;966;-69
2023/07/13 00:30:38;;;;;;;;;;;22.30;63.20;;;;;;4971686;28;978;-69
2023/07/13 00:33:03;;;;;;;;;;;22.30;63.30;;;;;;4971600;28;886;-68
2023/07/13 00:35:30;;;;;;;;;;;22.30;63.30;;;;;;4973982;28;1327;-68
2023/07/13 00:37:56;;;;;;;;;;;22.30;63.40;;;;;;4970175;28;1279;-68
2023/07/13 00:40:21;;;;;;;;;;;22.30;63.40;;;;;;4969547;28;1969;-68
2023/07/13 00:42:47;;;;;;;;;;;22.30;63.50;;;;;;4971189;28;954;-68
2023/07/13 00:45:12;;;;;;;;;;;22.30;63.50;;;;;;4971489;28;1285;-68
2023/07/13 00:47:38;;;;;;;;;;;22.30;63.50;;;;;;4971321;28;809;-68
2023/07/13 00:50:05;;;;;;;;;;;22.30;63.50;;;;;;4969863;28;921;-68
2023/07/13 00:52:30;;;;;;;;;;;22.30;63.50;;;;;;4986160;28;882;-68
2023/07/13 00:54:56;;;;;;;;;;;22.30;63.60;;;;;;4971591;28;1249;-68
2023/07/13 00:57:21;;;;;;;;;;;22.30;63.50;;;;;;4971605;28;876;-69
2023/07/13 00:59:47;;;;;;;;;;;22.30;63.60;;;;;;4970078;28;1964;-68
2023/07/13 01:02:13;;;;;;;;;;;22.30;63.60;;;;;;4985761;28;946;-69
2023/07/13 01:04:38;;;;;;;;;;;22.30;63.60;;;;;;4971289;28;1288;-68
2023/07/13 01:07:04;;;;;;;;;;;22.30;63.70;;;;;;4971525;28;1204;-68
2023/07/13 01:09:30;;;;;;;;;;;22.30;63.60;;;;;;4986306;28;993;-69
2023/07/13 01:11:55;;;;;;;;;;;22.30;63.70;;;;;;4970986;28;836;-69
2023/07/13 01:14:20;;;;;;;;;;;22.30;63.70;;;;;;4971437;28;1273;-69
2023/07/13 01:16:47;;;;;;;;;;;22.30;63.70;;;;;;4971149;28;955;-69
2023/07/13 01:19:17;;;;;;;;;;;22.30;63.70;;;;;;4989783;28;1898;-69
2023/07/13 01:21:42;;;;;;;;;;;22.30;63.70;;;;;;4973479;28;837;-69
2023/07/13 01:24:08;;;;;;;;;;;22.30;63.80;;;;;;4973813;28;1359;-69
2023/07/13 01:26:34;;;;;;;;;;;22.30;63.80;;;;;;4975370;28;837;-69
2023/07/13 01:28:59;;;;;;;;;;;22.30;63.80;;;;;;4990032;28;1423;-69
2023/07/13 01:31:25;;;;;;;;;;;22.30;63.80;;;;;;4975010;28;828;-69
2023/07/13 01:33:50;;;;;;;;;;;22.30;63.90;;;;;;4974822;28;1232;-69
2023/07/13 01:36:15;;;;;;;;;;;22.20;63.80;;;;;;4972416;28;900;-69
2023/07/13 01:38:41;;;;;;;;;;;22.30;63.90;;;;;;4974309;28;892;-68
2023/07/13 01:41:07;;;;;;;;;;;22.30;63.90;;;;;;4973581;28;1965;-68
2023/07/13 01:43:32;;;;;;;;;;;22.30;63.90;;;;;;4974648;28;1350;-69
2023/07/13 01:45:58;;;;;;;;;;;22.30;63.90;;;;;;4974481;28;907;-68
2023/07/13 01:48:23;;;;;;;;;;;22.30;64.00;;;;;;4974833;28;1794;-70
2023/07/13 01:50:49;;;;;;;;;;;22.30;64.00;;;;;;4974652;28;926;-69
2023/07/13 01:53:15;;;;;;;;;;;22.30;64.00;;;;;;4986359;28;1361;-68
2023/07/13 01:55:41;;;;;;;;;;;22.30;64.00;;;;;;4974350;28;1061;-68
2023/07/13 01:58:06;;;;;;;;;;;22.30;64.00;;;;;;4987826;28;896;-68
2023/07/13 02:00:32;;;;;;;;;;;22.30;64.10;;;;;;4975112;28;1985;-68
2023/07/13 02:02:58;;;;;;;;;;;22.30;64.10;;;;;;4988627;28;915;-69
2023/07/13 02:05:23;;;;;;;;;;;22.30;64.10;;;;;;4973557;28;1217;-68
2023/07/13 02:07:49;;;;;;;;;;;22.30;64.10;;;;;;4972556;28;907;-68
2023/07/13 02:10:14;;;;;;;;;;;22.30;64.10;;;;;;4989372;28;852;-68
2023/07/13 02:12:40;;;;;;;;;;;22.20;64.10;;;;;;4971378;28;955;-68
2023/07/13 02:15:06;;;;;;;;;;;22.20;64.10;;;;;;4972785;28;1273;-68
2023/07/13 02:17:32;;;;;;;;;;;22.20;64.10;;;;;;4973850;28;815;-68
2023/07/13 02:19:57;;;;;;;;;;;22.30;64.20;;;;;;4968966;28;1955;-68
2023/07/13 02:22:23;;;;;;;;;;;22.20;64.10;;;;;;4973838;28;846;-68
2023/07/13 02:24:48;;;;;;;;;;;22.30;64.20;;;;;;4974204;28;1266;-68
2023/07/13 02:27:14;;;;;;;;;;;22.20;64.10;;;;;;4973173;28;1260;-68
2023/07/13 02:29:39;;;;;;;;;;;22.30;64.30;;;;;;4973525;28;1014;-68
2023/07/13 02:32:05;;;;;;;;;;;22.20;64.20;;;;;;4972180;28;849;-68
2023/07/13 02:34:30;;;;;;;;;;;22.20;64.20;;;;;;4971481;28;1286;-68
2023/07/13 02:36:56;;;;;;;;;;;22.30;64.30;;;;;;4985046;28;1353;-68
2023/07/13 02:39:21;;;;;;;;;;;22.30;64.30;;;;;;4974072;28;1968;-68
2023/07/13 02:41:47;;;;;;;;;;;22.30;64.30;;;;;;4972437;28;1578;-68
2023/07/13 02:44:13;;;;;;;;;;;22.30;64.30;;;;;;4973731;28;1350;-67
2023/07/13 02:46:39;;;;;;;;;;;22.20;64.30;;;;;;4971446;28;833;-68
2023/07/13 02:49:04;;;;;;;;;;;22.30;64.30;;;;;;4971907;28;934;-68
2023/07/13 02:51:30;;;;;;;;;;;22.30;64.40;;;;;;4972538;28;856;-68
2023/07/13 02:53:56;;;;;;;;;;;22.30;64.40;;;;;;4972687;28;1336;-68
2023/07/13 02:56:25;;;;;;;;;;;22.30;64.40;;;;;;4972529;28;833;-68
2023/07/13 02:58:50;;;;;;;;;;;22.30;64.40;;;;;;4969689;28;931;-68
2023/07/13 03:01:18;;;;;;;;;;;22.30;64.40;;;;;;4972520;28;1906;-68
2023/07/13 03:03:47;;;;;;;;;;;22.30;64.50;;;;;;4967294;28;1209;-68
2023/07/13 03:06:13;;;;;;;;;;;22.20;64.40;;;;;;4987179;28;986;-68
2023/07/13 03:08:38;;;;;;;;;;;22.30;64.50;;;;;;4972608;28;966;-68
2023/07/13 03:11:05;;;;;;;;;;;22.30;64.50;;;;;;4972651;28;951;-68
2023/07/13 03:13:30;;;;;;;;;;;22.30;64.50;;;;;;4971837;28;1668;-68
2023/07/13 03:15:56;;;;;;;;;;;22.20;64.40;;;;;;4987106;28;919;-68
2023/07/13 03:18:21;;;;;;;;;;;22.30;64.60;;;;;;4969030;28;1173;-68
2023/07/13 03:20:49;;;;;;;;;;;22.20;64.50;;;;;;4972905;28;1902;-68
2023/07/13 03:23:15;;;;;;;;;;;22.20;64.50;;;;;;4972778;28;1359;-68
2023/07/13 03:25:40;;;;;;;;;;;22.30;64.60;;;;;;4972173;28;1172;-68
2023/07/13 03:28:06;;;;;;;;;;;22.20;64.50;;;;;;4972818;28;892;-68
2023/07/13 03:30:31;;;;;;;;;;;22.30;64.60;;;;;;4972426;28;888;-68
2023/07/13 03:32:57;;;;;;;;;;;22.30;64.60;;;;;;4972581;28;864;-68
2023/07/13 03:35:22;;;;;;;;;;;22.20;64.60;;;;;;4972059;28;1270;-69
2023/07/13 03:37:47;;;;;;;;;;;22.20;64.60;;;;;;4971300;28;1418;-69
2023/07/13 03:40:13;;;;;;;;;;;22.20;64.60;;;;;;4975071;28;1899;-69
2023/07/13 03:42:38;;;;;;;;;;;22.20;64.60;;;;;;4971515;28;825;-69
2023/07/13 03:45:04;;;;;;;;;;;22.30;64.70;;;;;;4971658;28;1264;-69
2023/07/13 03:47:30;;;;;;;;;;;22.20;64.70;;;;;;4970858;28;1410;-69
2023/07/13 03:49:55;;;;;;;;;;;22.30;64.70;;;;;;4987283;28;840;-69
2023/07/13 03:52:20;;;;;;;;;;;22.20;64.70;;;;;;4973500;28;809;-69
2023/07/13 03:54:46;;;;;;;;;;;22.30;64.70;;;;;;4971936;28;1370;-69
2023/07/13 03:57:11;;;;;;;;;;;22.30;64.80;;;;;;4970922;28;875;-69
2023/07/13 03:59:37;;;;;;;;;;;22.20;64.70;;;;;;4986948;28;2061;-69
2023/07/13 04:02:04;;;;;;;;;;;22.20;64.70;;;;;;4970642;28;908;-69
2023/07/13 04:04:30;;;;;;;;;;;22.30;64.80;;;;;;4971843;28;1218;-69
2023/07/13 04:06:58;;;;;;;;;;;22.20;64.80;;;;;;4971962;28;936;-69
2023/07/13 04:09:23;;;;;;;;;;;22.20;64.70;;;;;;4971450;28;819;-69
2023/07/13 04:11:49;;;;;;;;;;;22.30;64.80;;;;;;4971199;28;1010;-69
2023/07/13 04:14:14;;;;;;;;;;;22.30;64.90;;;;;;4971861;28;1374;-69
2023/07/13 04:16:40;;;;;;;;;;;22.20;64.80;;;;;;4971920;28;933;-69
2023/07/13 04:19:05;;;;;;;;;;;22.20;65.50;;;;;;4971739;28;1894;-69
2023/07/13 04:21:31;;;;;;;;;;;22.20;64.80;;;;;;4972174;28;837;-69
2023/07/13 04:23:56;;;;;;;;;;;22.20;64.80;;;;;;4985935;28;1378;-69
2023/07/13 04:26:22;;;;;;;;;;;22.20;64.80;;;;;;4982696;28;856;-69
2023/07/13 04:28:48;;;;;;;;;;;22.20;64.80;;;;;;4969866;28;1360;-69
2023/07/13 04:31:13;;;;;;;;;;;22.20;64.90;;;;;;4970747;28;856;-69
2023/07/13 04:33:39;;;;;;;;;;;22.20;64.90;;;;;;4970703;28;1272;-69
2023/07/13 04:36:05;;;;;;;;;;;22.20;64.90;;;;;;4971881;28;1014;-69
2023/07/13 04:38:30;;;;;;;;;;;22.20;64.90;;;;;;4970749;28;1240;-68
2023/07/13 04:40:56;;;;;;;;;;;22.20;64.90;;;;;;4968945;28;1912;-69
2023/07/13 04:43:22;;;;;;;;;;;22.20;64.90;;;;;;4986349;28;1337;-69
2023/07/13 04:45:47;;;;;;;;;;;22.20;64.90;;;;;;4969532;28;1010;-69
2023/07/13 04:48:13;;;;;;;;;;;22.20;64.90;;;;;;4971580;28;1617;-69
2023/07/13 04:50:38;;;;;;;;;;;22.20;64.90;;;;;;4969735;28;915;-69
2023/07/13 04:53:04;;;;;;;;;;;22.20;64.90;;;;;;4970788;28;795;-69
2023/07/13 04:55:30;;;;;;;;;;;22.20;65.00;;;;;;4969044;28;1224;-69
2023/07/13 04:57:56;;;;;;;;;;;22.20;65.00;;;;;;4969223;28;1373;-69
2023/07/13 05:00:21;;;;;;;;;;;22.20;65.00;;;;;;4969057;28;1968;-68
2023/07/13 05:02:47;;;;;;;;;;;22.20;65.00;;;;;;4970769;28;938;-68
2023/07/13 05:05:12;;;;;;;;;;;22.20;65.00;;;;;;4968351;28;1222;-69
2023/07/13 05:07:38;;;;;;;;;;;22.20;65.00;;;;;;4967356;28;862;-69
2023/07/13 05:10:03;;;;;;;;;;;22.20;65.00;;;;;;4971460;28;834;-69
2023/07/13 05:12:29;;;;;;;;;;;22.20;65.70;;;;;;4970655;28;859;-69
2023/07/13 05:14:55;;;;;;;;;;;22.20;65.00;;;;;;4971051;28;1435;-69
2023/07/13 05:17:20;;;;;;;;;;;22.20;65.10;;;;;;4968930;28;924;-68
2023/07/13 05:19:46;;;;;;;;;;;22.20;64.70;;;;;;4970936;28;1899;-67
2023/07/13 05:22:11;;;;;;;;;;;22.20;63.80;;;;;;4965927;28;1000;-67
2023/07/13 05:24:37;;;;;;;;;;;22.20;63.30;;;;;;4970960;28;1351;-68
2023/07/13 05:27:03;;;;;;;;;;;22.20;63.50;;;;;;4970557;28;1062;-68
2023/07/13 05:29:28;;;;;;;;;;;22.20;63.70;;;;;;4971677;28;851;-68
2023/07/13 05:31:54;;;;;;;;;;;22.20;63.80;;;;;;4967003;28;2418;-68
2023/07/13 05:34:19;;;;;;;;;;;22.20;63.80;;;;;;4969113;28;1926;-69
2023/07/13 05:36:44;;;;;;;;;;;22.20;63.80;;;;;;4970900;28;1654;-68
2023/07/13 05:39:11;;;;;;;;;;;22.20;63.80;;;;;;4970783;28;1981;-69
2023/07/13 05:41:37;;;;;;;;;;;22.20;63.80;;;;;;4966703;28;860;-68
2023/07/13 05:44:02;;;;;;;;;;;22.20;63.90;;;;;;4985103;28;1271;-68
2023/07/13 05:46:27;;;;;;;;;;;22.20;63.70;;;;;;4970773;28;905;-68
2023/07/13 05:48:53;;;;;;;;;;;22.20;63.70;;;;;;4970778;28;888;-70
2023/07/13 05:51:18;;;;;;;;;;;22.20;63.60;;;;;;4968723;28;1036;-71
2023/07/13 05:53:44;;;;;;;;;;;22.20;63.60;;;;;;4970287;28;1262;-70
2023/07/13 05:56:09;;;;;;;;;;;22.20;63.70;;;;;;4968475;28;1011;-69
2023/07/13 05:58:35;;;;;;;;;;;22.20;63.70;;;;;;4970188;28;886;-69
2023/07/13 06:01:01;;;;;;;;;;;22.20;63.80;;;;;;4970868;28;1902;-69
2023/07/13 06:03:27;;;;;;;;;;;22.20;63.80;;;;;;4971998;28;1264;-69
2023/07/13 06:05:52;;;;;;;;;;;22.20;63.90;;;;;;4971321;28;1641;-69
2023/07/13 06:08:17;;;;;;;;;;;22.20;64.00;;;;;;4973582;28;910;-69
2023/07/13 06:10:43;;;;;;;;;;;22.20;64.00;;;;;;4972865;28;936;-69
2023/07/13 06:13:08;;;;;;;;;;;22.20;64.80;;;;;;4973271;28;1279;-69
2023/07/13 06:15:34;;;;;;;;;;;22.20;64.10;;;;;;4974070;28;811;-70
2023/07/13 06:17:59;;;;;;;;;;;22.20;64.20;;;;;;4973857;28;801;-70
2023/07/13 06:20:25;;;;;;;;;;;22.20;64.20;;;;;;4971918;28;1902;-69
2023/07/13 06:22:50;;;;;;;;;;;22.20;64.30;;;;;;4972695;28;809;-68
2023/07/13 06:25:17;;;;;;;;;;;22.20;64.30;;;;;;4973458;28;1372;-69
2023/07/13 06:27:43;;;;;;;;;;;22.20;64.30;;;;;;4987553;28;1261;-69
2023/07/13 06:30:09;;;;;;;;;;;22.20;64.40;;;;;;4973164;28;873;-70
2023/07/13 06:32:34;;;;;;;;;;;22.20;64.40;;;;;;4972062;28;876;-69
2023/07/13 06:35:00;;;;;;;;;;;22.20;64.50;;;;;;4970350;28;1261;-69
2023/07/13 06:37:25;;;;;;;;;;;22.20;64.60;;;;;;4970118;28;1387;-68
2023/07/13 06:39:50;;;;;;;;;;;22.20;64.70;;;;;;4974062;28;1910;-69
2023/07/13 06:42:19;;;;;;;;;;;22.20;64.70;;;;;;4972077;28;930;-69
2023/07/13 06:44:44;;;;;;;;;;;22.20;64.80;;;;;;4963914;28;1265;-69
2023/07/13 06:47:10;;;;;;;;;;;22.20;64.80;;;;;;4973377;28;877;-69
2023/07/13 06:49:35;;;;;;;;;;;22.20;65.10;;;;;;4986573;28;1361;-68
2023/07/13 06:52:01;;;;;;;;;;;22.20;64.90;;;;;;4972156;28;875;-69
2023/07/13 06:54:26;;;;;;;;;;;22.20;64.90;;;;;;4969130;28;1330;-69
2023/07/13 06:56:52;;;;;;;;;;;22.20;64.80;;;;;;4970494;28;922;-68
2023/07/13 06:59:18;;;;;;;;;;;22.20;64.80;;;;;;4971891;28;1963;-68
2023/07/13 07:01:43;;;;;;;;;;;22.20;65.00;;;;;;4972617;28;1042;-69
2023/07/13 07:04:09;;;;;;;;;;;22.20;64.90;;;;;;4972546;28;1347;-69
2023/07/13 07:06:34;;;;;;;;;;;22.20;64.80;;;;;;4970472;28;951;-68
2023/07/13 07:09:00;;;;;;;;;;;22.20;64.80;;;;;;4969134;28;1042;-69
2023/07/13 07:11:25;;;;;;;;;;;22.20;64.70;;;;;;4970316;28;1027;-69
2023/07/13 07:13:51;;;;;;;;;;;22.20;64.70;;;;;;4971319;28;1354;-68
2023/07/13 07:16:17;;;;;;;;;;;22.20;64.70;;;;;;4971883;28;1262;-68
2023/07/13 07:18:42;;;;;;;;;;;22.20;64.60;;;;;;4971848;28;993;-69
2023/07/13 07:21:08;;;;;;;;;;;22.30;64.70;;;;;;4970833;28;1902;-69
2023/07/13 07:23:34;;;;;;;;;;;22.20;64.60;;;;;;4971798;28;1379;-69
2023/07/13 07:25:59;;;;;;;;;;;22.30;64.60;;;;;;4972334;28;832;-68
2023/07/13 07:28:25;;;;;;;;;;;22.20;64.50;;;;;;4972859;28;943;-68
2023/07/13 07:30:52;;;;;;;;;;;22.30;64.60;;;;;;4972587;28;1261;-68
2023/07/13 07:33:17;;;;;;;;;;;22.30;64.70;;;;;;4970487;28;2121;-69
2023/07/13 07:35:43;;;;;;;;;;;22.30;64.50;;;;;;4970659;28;1576;-69
2023/07/13 07:38:09;;;;;;;;;;;22.30;64.50;;;;;;4970496;28;1377;-69
2023/07/13 07:40:37;;;;;;;;;;;22.30;64.40;;;;;;4971462;28;1964;-69
2023/07/13 07:43:03;;;;;;;;;;;22.30;64.40;;;;;;4986183;28;865;-69
2023/07/13 07:45:28;;;;;;;;;;;22.30;64.40;;;;;;4971496;28;1314;-69
2023/07/13 07:47:58;;;;;;;;;;;22.30;64.30;;;;;;4971844;28;923;-68
2023/07/13 07:50:27;;;;;;;;;;;22.30;64.40;;;;;;4970970;28;797;-69
2023/07/13 07:52:53;;;;;;;;;;;22.30;64.60;;;;;;4971735;28;1181;-68
2023/07/13 07:55:18;;;;;;;;;;;22.30;64.50;;;;;;4971815;28;1364;-69
2023/07/13 07:57:44;;;;;;;;;;;22.30;64.50;;;;;;4986743;28;818;-69
2023/07/13 08:00:09;;;;;;;;;;;22.30;64.50;;;;;;4970977;28;1957;-68
2023/07/13 08:02:35;;;;;;;;;;;22.30;64.40;;;;;;4971612;28;967;-69
2023/07/13 08:05:00;;;;;;;;;;;22.30;64.30;;;;;;4971307;28;1370;-69
2023/07/13 08:07:26;;;;;;;;;;;22.30;64.10;;;;;;4972245;28;1603;-70
2023/07/13 08:09:54;;;;;;;;;;;22.30;64.10;;;;;;4971101;28;1419;-69
2023/07/13 08:12:20;;;;;;;;;;;22.30;64.20;;;;;;4971239;28;1030;-70
2023/07/13 08:14:45;;;;;;;;;;;22.30;65.00;;;;;;4971030;28;1274;-70
2023/07/13 08:17:11;;;;;;;;;;;22.30;64.50;;;;;;4971903;28;1074;-69
2023/07/13 08:19:36;;;;;;;;;;;22.30;64.60;;;;;;4971193;28;1907;-70
2023/07/13 08:22:02;;;;;;;;;;;22.30;64.60;;;;;;4992096;28;1232;-69
2023/07/13 08:24:27;;;;;;;;;;;22.30;64.60;;;;;;4971810;28;1362;-69
2023/07/13 08:26:53;;;;;;;;;;;22.30;64.40;;;;;;4971479;28;896;-69
2023/07/13 08:29:18;;;;;;;;;;;22.30;64.30;;;;;;4973573;28;1393;-69
2023/07/13 08:31:44;;;;;;;;;;;22.30;64.40;;;;;;4971767;28;1390;-69
2023/07/13 08:34:10;;;;;;;;;;;22.30;64.50;;;;;;4971566;28;1358;-69
2023/07/13 08:36:36;;;;;;;;;;;22.30;64.40;;;;;;4971569;28;1104;-69
2023/07/13 08:39:01;;;;;;;;;;;22.30;64.30;;;;;;4968325;28;1283;-70
2023/07/13 08:41:27;;;;;;;;;;;22.30;64.40;;;;;;4970462;28;1894;-69
2023/07/13 08:43:55;;;;;;;;;;;22.30;64.30;;;;;;4984965;28;1271;-69
2023/07/13 08:46:24;;;;;;;;;;;22.30;64.10;;;;;;4970611;28;990;-69
2023/07/13 08:48:54;;;;;;;;;;;22.40;63.50;;;;;;4969485;28;870;-70
2023/07/13 08:51:25;;;;;;;;;;;22.30;62.60;;;;;;4969660;28;948;-69
2023/07/13 08:53:53;;;;;;;;;;;22.40;62.20;;;;;;4981936;28;1390;-69
2023/07/13 08:56:19;;;;;;;;;;;22.40;61.70;;;;;;4986534;28;877;-69
2023/07/13 08:58:45;;;;;;;;;;;22.40;61.30;;;;;;4969718;28;1597;-69
2023/07/13 09:01:16;;;;;;;;;;;22.40;62.20;;;;;;4986256;28;1934;-68
2023/07/13 09:04:02;;;;;;;;;;;22.40;62.00;;;;;;4982929;28;1293;-69
2023/07/13 09:06:31;;;;;;;;;;;22.40;62.40;;;;;;4955533;28;2142;-70
2023/07/13 09:09:05;;;;;;;;;;;22.50;62.00;;;;;;4961868;28;2110;-69
2023/07/13 09:11:47;;;;;;;;;;;22.50;61.40;;;;;;4987296;28;1460;-70
2023/07/13 09:14:32;;;;;;;;;;;22.50;61.50;;;;;;4947118;28;1288;-69
2023/07/13 09:16:57;;;;;;;;;;;22.40;60.80;;;;;;4985746;28;1214;-68
2023/07/13 09:19:27;;;;;;;;;;;22.50;60.50;;;;;;4984850;28;1906;-70
2023/07/13 09:21:52;;;;;;;;;;;22.50;61.00;;;;;;4985880;28;1354;-68
2023/07/13 09:24:37;;;;;;;;;;;22.50;60.80;;;;;;4969557;28;1344;-69
2023/07/13 09:27:05;;;;;;;;;;;22.50;59.90;;;;;;4967951;28;1021;-69
2023/07/13 09:29:37;;;;;;;;;;;22.50;60.40;;;;;;4970073;28;851;-70
2023/07/13 09:32:03;;;;;;;;;;;22.50;59.80;;;;;;4969125;28;946;-70
2023/07/13 09:34:30;;;;;;;;;;;22.50;59.50;;;;;;4968494;28;1360;-69
2023/07/13 09:36:58;;;;;;;;;;;22.50;59.40;;;;;;4971021;28;1242;-70
2023/07/13 09:39:32;;;;;;;;;;;22.50;60.40;;;;;;4973085;28;1902;-69
2023/07/13 09:42:16;;;;;;;;;;;22.50;61.40;;;;;;4969782;28;2150;-70
2023/07/13 09:44:58;;;;;;;;;;;22.40;60.50;;;;;;4971907;28;1380;-70
2023/07/13 09:47:29;;;;;;;;;;;22.40;60.90;;;;;;4988378;28;1385;-69
2023/07/13 09:49:58;;;;;;;;;;;22.40;61.10;;;;;;4986274;28;1551;-70
2023/07/13 09:52:24;;;;;;;;;;;22.50;61.10;;;;;;4973188;28;1585;-70
2023/07/13 09:54:49;;;;;;;;;;;22.40;59.70;;;;;;4978282;28;1735;-70
2023/07/13 09:57:18;;;;;;;;;;;22.40;60.10;;;;;;4989481;28;876;-69
2023/07/13 09:59:46;;;;;;;;;;;22.40;59.20;;;;;;4970102;28;1961;-70
2023/07/13 10:02:27;;;;;;;;;;;22.40;59.80;;;;;;4972658;28;880;-71
2023/07/13 10:04:56;;;;;;;;;;;22.40;59.50;;;;;;4973580;28;1360;-69
2023/07/13 10:07:22;;;;;;;;;;;22.40;59.20;;;;;;4973900;28;899;-70
2023/07/13 10:09:51;;;;;;;;;;;22.40;58.60;;;;;;4972934;28;841;-70
2023/07/13 10:12:17;;;;;;;;;;;22.40;58.80;;;;;;4969112;28;1412;-70
2023/07/13 10:14:43;;;;;;;;;;;22.40;59.00;;;;;;4973048;28;1281;-69
2023/07/13 10:17:10;;;;;;;;;;;22.50;59.80;;;;;;4989310;28;843;-70
2023/07/13 10:19:35;;;;;;;;;;;22.40;58.80;;;;;;4988029;28;1910;-70
2023/07/13 10:22:20;;;;;;;;;;;22.40;59.30;;;;;;4972486;28;817;-70
2023/07/13 10:24:46;;;;;;;;;;;22.40;59.50;;;;;;4973672;28;1264;-69
2023/07/13 10:27:15;;;;;;;;;;;22.40;59.70;;;;;;4987386;28;2156;-70
2023/07/13 10:30:00;;;;;;;;;;;22.50;58.90;;;;;;4968546;28;1017;-70
2023/07/13 10:32:25;;;;;;;;;;;22.50;58.00;;;;;;4972282;28;887;-70
2023/07/13 10:34:52;;;;;;;;;;;22.50;58.30;;;;;;4971148;28;1272;-70
2023/07/13 10:37:41;;;;;;;;;;;22.40;58.50;;;;;;4971479;28;1289;-70
2023/07/13 10:40:07;;;;;;;;;;;22.50;58.20;;;;;;4968029;28;1898;-69
2023/07/13 10:42:33;;;;;;;;;;;22.50;57.50;;;;;;4970778;28;1252;-70
2023/07/13 10:44:59;;;;;;;;;;;22.50;56.90;;;;;;4971247;28;1397;-69
2023/07/13 10:47:24;;;;;;;;;;;22.50;56.80;;;;;;4972871;28;1517;-69
2023/07/13 10:49:50;;;;;;;;;;;22.50;56.80;;;;;;4971803;28;896;-69
2023/07/13 10:52:50;;;;;;;;;;;22.50;57.20;;;;;;4970044;28;1043;-70
2023/07/13 10:55:35;;;;;;;;;;;22.50;56.80;;;;;;4961662;28;1367;-68
2023/07/13 10:58:01;;;;;;;;;;;22.50;58.00;;;;;;4972893;28;852;-70
2023/07/13 11:00:30;;;;;;;;;;;22.50;58.10;;;;;;4973440;28;1977;-70
2023/07/13 11:02:56;;;;;;;;;;;22.50;57.90;;;;;;4970545;28;900;-69
2023/07/13 11:05:31;;;;;;;;;;;22.50;57.60;;;;;;4988118;28;1231;-69
2023/07/13 11:08:12;;;;;;;;;;;22.50;57.20;;;;;;4973003;28;941;-69
2023/07/13 11:10:54;;;;;;;;;;;22.50;57.10;;;;;;4971837;28;1233;-69
2023/07/13 11:13:38;;;;;;;;;;;22.50;57.00;;;;;;4971623;28;1204;-69
2023/07/13 11:16:13;;;;;;;;;;;22.50;56.80;;;;;;4972776;28;841;-69
2023/07/13 11:18:38;;;;;;;;;;;22.60;56.90;;;;;;4987509;28;1339;-69
2023/07/13 11:21:14;;;;;;;;;;;22.60;56.70;;;;;;4970647;28;1911;-69
2023/07/13 11:23:41;;;;;;;;;;;22.60;56.80;;;;;;4986514;28;1368;-69
2023/07/13 11:26:27;;;;;;;;;;;22.60;56.60;;;;;;4971406;28;919;-69
2023/07/13 11:28:52;;;;;;;;;;;22.60;56.40;;;;;;4971586;28;1095;-69
2023/07/13 11:31:19;;;;;;;;;;;22.60;55.80;;;;;;4972186;28;876;-69
2023/07/13 11:33:56;;;;;;;;;;;22.60;55.10;;;;;;4969892;28;1311;-69
2023/07/13 11:36:22;;;;;;;;;;;22.60;55.20;;;;;;4987145;28;976;-69
2023/07/13 11:39:21;;;;;;;;;;;22.60;54.40;;;;;;4971156;28;938;-69
2023/07/13 11:41:53;;;;;;;;;;;22.60;54.90;;;;;;4950041;28;1157;-69
2023/07/13 11:44:19;;;;;;;;;;;22.60;54.20;;;;;;4971927;28;1372;-69
2023/07/13 11:46:48;;;;;;;;;;;22.70;54.20;;;;;;4972351;28;891;-69
2023/07/13 11:49:17;;;;;;;;;;;22.70;54.10;;;;;;4972554;28;789;-69
2023/07/13 11:51:43;;;;;;;;;;;22.70;53.90;;;;;;4971139;28;1562;-69
2023/07/13 11:54:24;;;;;;;;;;;22.60;53.60;;;;;;4972107;28;1299;-69
2023/07/13 11:56:50;;;;;;;;;;;22.70;53.90;;;;;;4972058;28;809;-69
2023/07/13 11:59:15;;;;;;;;;;;22.70;53.60;;;;;;4987217;28;939;-69
2023/07/13 12:01:44;;;;;;;;;;;22.70;53.60;;;;;;4971439;28;1910;-69
2023/07/13 12:04:18;;;;;;;;;;;22.70;53.90;;;;;;4971077;28;1342;-69
2023/07/13 12:06:44;;;;;;;;;;;22.70;53.80;;;;;;4970707;28;1629;-69
2023/07/13 12:09:13;;;;;;;;;;;22.70;54.50;;;;;;4987338;28;1081;-69
2023/07/13 12:11:42;;;;;;;;;;;22.70;54.50;;;;;;4971893;28;816;-70
2023/07/13 12:14:17;;;;;;;;;;;22.70;53.60;;;;;;4985250;28;1272;-70
2023/07/13 12:16:43;;;;;;;;;;;22.70;53.30;;;;;;4969393;28;829;-70
2023/07/13 12:19:16;;;;;;;;;;;22.70;53.90;;;;;;4963556;28;1017;-69
2023/07/13 12:21:42;;;;;;;;;;;22.70;54.00;;;;;;4985081;28;1903;-70
2023/07/13 12:24:13;;;;;;;;;;;22.70;53.80;;;;;;4970599;28;1310;-70
2023/07/13 12:26:39;;;;;;;;;;;22.70;54.10;;;;;;4970079;28;812;-69
2023/07/13 12:29:05;;;;;;;;;;;22.70;54.10;;;;;;4970283;28;1328;-69
2023/07/13 12:31:33;;;;;;;;;;;22.70;54.40;;;;;;4968440;28;857;-70
2023/07/13 12:34:08;;;;;;;;;;;22.70;54.60;;;;;;4970660;28;1348;-69
2023/07/13 12:36:34;;;;;;;;;;;22.70;54.60;;;;;;4970390;28;813;-68
2023/07/13 12:39:19;;;;;;;;;;;22.70;54.90;;;;;;4971274;28;1362;-69
2023/07/13 12:41:45;;;;;;;;;;;22.70;54.80;;;;;;4986649;28;1899;-69
2023/07/13 12:44:11;;;;;;;;;;;22.70;54.10;;;;;;4970633;28;1698;-69
2023/07/13 12:46:37;;;;;;;;;;;22.70;54.00;;;;;;4971287;28;865;-69
2023/07/13 12:49:06;;;;;;;;;;;22.70;53.30;;;;;;4964279;28;874;-69
2023/07/13 12:51:32;;;;;;;;;;;22.70;53.70;;;;;;4986085;28;903;-69
2023/07/13 12:53:59;;;;;;;;;;;22.70;54.00;;;;;;4967801;28;1273;-69
2023/07/13 12:56:26;;;;;;;;;;;22.70;54.30;;;;;;4970376;28;881;-68
2023/07/13 12:58:57;;;;;;;;;;;22.70;54.40;;;;;;4983080;28;2223;-69
2023/07/13 13:01:23;;;;;;;;;;;22.70;54.40;;;;;;4968547;28;1910;-70
2023/07/13 13:03:52;;;;;;;;;;;22.70;54.40;;;;;;4968229;28;1402;-69
2023/07/13 13:06:20;;;;;;;;;;;22.70;54.60;;;;;;4984863;28;1143;-69
2023/07/13 13:08:46;;;;;;;;;;;22.70;54.50;;;;;;4967435;28;1493;-69
2023/07/13 13:11:11;;;;;;;;;;;22.70;54.30;;;;;;4986796;28;1050;-69
2023/07/13 13:13:37;;;;;;;;;;;22.70;54.40;;;;;;4975047;28;1431;-68
2023/07/13 13:16:08;;;;;;;;;;;22.70;55.20;;;;;;4974614;28;916;-69
2023/07/13 13:18:35;;;;;;;;;;;22.70;55.20;;;;;;4973707;28;1376;-68
2023/07/13 13:21:01;;;;;;;;;;;22.70;54.80;;;;;;4975048;28;1930;-68
2023/07/13 13:23:27;;;;;;;;;;;22.70;54.70;;;;;;4973617;28;1275;-68
2023/07/13 13:25:52;;;;;;;;;;;22.70;54.60;;;;;;4973342;28;2088;-69
2023/07/13 13:28:18;;;;;;;;;;;22.70;55.00;;;;;;4974691;28;1240;-68
2023/07/13 13:30:44;;;;;;;;;;;22.70;54.90;;;;;;4974383;28;867;-69
2023/07/13 13:33:10;;;;;;;;;;;22.70;54.20;;;;;;4971200;28;846;-69
2023/07/13 13:35:36;;;;;;;;;;;22.70;54.40;;;;;;4971966;28;939;-69
2023/07/13 13:38:01;;;;;;;;;;;22.70;54.20;;;;;;4973312;28;1390;-68
2023/07/13 13:40:27;;;;;;;;;;;22.70;53.80;;;;;;4973130;28;1899;-68
2023/07/13 13:42:55;;;;;;;;;;;22.70;53.90;;;;;;4974154;28;785;-69
2023/07/13 13:45:21;;;;;;;;;;;22.70;53.90;;;;;;4972670;28;1250;-68
2023/07/13 13:47:47;;;;;;;;;;;22.70;53.90;;;;;;4973815;28;876;-68
2023/07/13 13:50:14;;;;;;;;;;;22.70;53.00;;;;;;4973505;28;848;-68
2023/07/13 13:52:40;;;;;;;;;;;22.70;53.10;;;;;;4989043;28;904;-69
2023/07/13 13:55:13;;;;;;;;;;;22.70;52.90;;;;;;4974239;28;1279;-68
2023/07/13 13:57:38;;;;;;;;;;;22.70;53.10;;;;;;4972130;28;1098;-68
2023/07/13 14:00:05;;;;;;;;;;;22.70;52.50;;;;;;4974313;28;1910;-68
2023/07/13 14:02:31;;;;;;;;;;;22.70;52.70;;;;;;4997232;28;1240;-68
2023/07/13 14:04:59;;;;;;;;;;;22.70;52.70;;;;;;4973247;28;1288;-68
2023/07/13 14:07:24;;;;;;;;;;;22.70;52.80;;;;;;4967543;28;919;-68
2023/07/13 14:09:50;;;;;;;;;;;22.70;52.90;;;;;;4969889;28;944;-68
2023/07/13 14:12:15;;;;;;;;;;;22.80;52.90;;;;;;4972844;28;1510;-68
2023/07/13 14:14:41;;;;;;;;;;;22.70;52.90;;;;;;4989255;28;1264;-68
2023/07/13 14:17:12;;;;;;;;;;;22.80;53.10;;;;;;4973981;28;849;-68
2023/07/13 14:19:37;;;;;;;;;;;22.80;52.70;;;;;;4971734;28;1974;-69
2023/07/13 14:22:03;;;;;;;;;;;22.80;52.30;;;;;;4972716;28;1276;-68
2023/07/13 14:24:29;;;;;;;;;;;22.80;52.40;;;;;;4971624;28;1272;-69
2023/07/13 14:26:54;;;;;;;;;;;22.80;52.40;;;;;;4974204;28;1007;-69
2023/07/13 14:29:21;;;;;;;;;;;22.80;52.40;;;;;;4974271;28;1534;-68
2023/07/13 14:31:47;;;;;;;;;;;22.80;52.00;;;;;;4973739;28;836;-68
2023/07/13 14:34:14;;;;;;;;;;;22.80;52.20;;;;;;4971906;28;1390;-68
2023/07/13 14:36:41;;;;;;;;;;;22.80;52.30;;;;;;4974357;28;903;-68